Terminal Aerodrome Forecast
Issued by NWS Bismarck, ND

Home | Current Version | Previous Version | Text Only | Print | Product List | Glossary Off
Versions: 1 2 3 4 5 6 7 8 9 10 11 12 13 14 15 16 17 18 19 20

000
FTUS43 KBIS 241926 AAA
TAFISN
TAF AMD
KISN 241926Z 2419/2518 29021G30KT P6SM BKN035
     FM250200 32009KT P6SM BKN015
     FM250800 30005KT P6SM BKN050
     FM251400 30008KT P6SM SCT100=

USA.gov is the U.S. government's official web portal to all federal, state and local government web resources and services.